Time;durP1;ratioP1;P1;durP2;ratioP2;P2;SDS_P1;SDS_P2;PMS_P1;PMS_P2;Temp;Humidity;BMP_temperature;BMP_pressure;BME280_temperature;BME280_humidity;BME280_pressure;Samples;Min_cycle;Max_cycle;Signal;HPM_P1;HPM_P2
2021/03/20 00:00:27;;;;;;;20.70;15.57;;;;;;;;;;10357679;28;20516;-62
2021/03/20 00:05:25;;;;;;;56.35;36.28;;;;;;;;;;10359004;28;20059;-62
2021/03/20 00:10:23;;;;;;;19.52;14.05;;;;;;;;;;10356886;28;20060;-63
2021/03/20 00:15:22;;;;;;;20.90;13.45;;;;;;;;;;10352823;28;20501;-63
2021/03/20 00:20:22;;;;;;;19.75;15.32;;;;;;;;;;10358486;28;20086;-63
2021/03/20 00:25:20;;;;;;;18.20;14.60;;;;;;;;;;10358725;28;20083;-63
2021/03/20 00:30:18;;;;;;;21.08;14.25;;;;;;;;;;10357298;28;20047;-63
2021/03/20 00:35:17;;;;;;;22.35;15.63;;;;;;;;;;10357971;28;20075;-63
2021/03/20 00:40:16;;;;;;;24.05;16.85;;;;;;;;;;10351840;28;20071;-62
2021/03/20 00:45:14;;;;;;;21.00;15.65;;;;;;;;;;10358081;28;20481;-63
2021/03/20 00:50:13;;;;;;;40.78;26.30;;;;;;;;;;10357571;28;20068;-63
2021/03/20 00:55:11;;;;;;;19.95;15.95;;;;;;;;;;10356902;28;20086;-63
2021/03/20 01:00:11;;;;;;;20.88;16.23;;;;;;;;;;10354705;28;20067;-63
2021/03/20 01:05:09;;;;;;;23.67;17.33;;;;;;;;;;10355049;28;20036;-62
2021/03/20 01:10:08;;;;;;;27.23;16.98;;;;;;;;;;10357367;28;20066;-63
2021/03/20 01:15:06;;;;;;;21.70;16.17;;;;;;;;;;10356957;28;20037;-63
2021/03/20 01:20:06;;;;;;;20.15;16.08;;;;;;;;;;10357101;28;20079;-63
2021/03/20 01:25:04;;;;;;;25.65;15.73;;;;;;;;;;10354219;28;20464;-63
2021/03/20 01:30:01;;;;;;;36.75;21.92;;;;;;;;;;10355399;28;20090;-63
2021/03/20 01:34:59;;;;;;;20.27;15.77;;;;;;;;;;10357351;28;20493;-62
2021/03/20 01:39:57;;;;;;;25.52;20.75;;;;;;;;;;10357028;28;20074;-63
2021/03/20 01:45:14;;;;;;;19.58;14.25;;;;;;;;;;10354622;28;20072;-63
2021/03/20 01:50:13;;;;;;;19.58;14.40;;;;;;;;;;10354062;28;20493;-63
2021/03/20 01:55:13;;;;;;;22.30;17.50;;;;;;;;;;10356171;28;20047;-63
2021/03/20 02:00:13;;;;;;;19.58;16.23;;;;;;;;;;10355992;28;20080;-63
2021/03/20 02:05:12;;;;;;;21.80;19.17;;;;;;;;;;10359654;28;20508;-63
2021/03/20 02:10:10;;;;;;;26.52;23.52;;;;;;;;;;10363905;28;20102;-63
2021/03/20 02:15:14;;;;;;;21.63;18.70;;;;;;;;;;10360647;28;20044;-63
2021/03/20 02:20:38;;;;;;;18.75;14.65;;;;;;;;;;10363050;28;20082;-62
2021/03/20 02:25:49;;;;;;;16.08;13.27;;;;;;;;;;10362741;28;20071;-62
2021/03/20 02:31:06;;;;;;;19.73;14.00;;;;;;;;;;10361035;28;20076;-62
2021/03/20 02:36:15;;;;;;;18.17;13.45;;;;;;;;;;10361091;28;20087;-62
2021/03/20 02:41:17;;;;;;;19.55;12.20;;;;;;;;;;10356896;28;20040;-63
2021/03/20 02:46:19;;;;;;;16.95;12.95;;;;;;;;;;10362072;28;20054;-63
2021/03/20 02:51:21;;;;;;;16.33;13.15;;;;;;;;;;10360103;28;20063;-63
2021/03/20 02:56:22;;;;;;;20.63;15.40;;;;;;;;;;10359241;28;20048;-63
2021/03/20 03:01:21;;;;;;;20.00;13.98;;;;;;;;;;10360725;28;20040;-63
2021/03/20 03:06:23;;;;;;;22.33;17.00;;;;;;;;;;10361808;28;20044;-62
2021/03/20 03:11:22;;;;;;;25.67;19.33;;;;;;;;;;10361387;28;20075;-62
2021/03/20 03:16:21;;;;;;;24.80;18.30;;;;;;;;;;10360341;28;20586;-63
2021/03/20 03:21:20;;;;;;;23.23;17.42;;;;;;;;;;10360897;28;20068;-62
2021/03/20 03:26:21;;;;;;;20.58;16.05;;;;;;;;;;10361045;28;20090;-62
2021/03/20 03:31:24;;;;;;;21.17;16.33;;;;;;;;;;10360003;28;20088;-62
2021/03/20 03:36:22;;;;;;;35.83;21.02;;;;;;;;;;10360459;28;20040;-63
2021/03/20 03:41:22;;;;;;;31.95;21.75;;;;;;;;;;10358583;28;20044;-63
2021/03/20 03:46:21;;;;;;;24.17;17.63;;;;;;;;;;10360004;28;20059;-63
2021/03/20 03:51:18;;;;;;;28.85;19.05;;;;;;;;;;10359815;28;20051;-62
2021/03/20 03:56:25;;;;;;;28.42;21.98;;;;;;;;;;10357081;28;20036;-62
2021/03/20 04:01:30;;;;;;;27.05;20.15;;;;;;;;;;10357962;28;20044;-63
2021/03/20 04:06:39;;;;;;;23.73;16.83;;;;;;;;;;10359242;28;20043;-63
2021/03/20 04:11:39;;;;;;;23.50;16.58;;;;;;;;;;10356503;28;20492;-63
2021/03/20 04:16:41;;;;;;;38.70;29.13;;;;;;;;;;10353455;28;20477;-63
2021/03/20 04:21:40;;;;;;;20.90;16.75;;;;;;;;;;10355623;28;20743;-62
2021/03/20 04:26:41;;;;;;;22.15;15.38;;;;;;;;;;10358136;28;20079;-63
2021/03/20 04:31:41;;;;;;;20.80;15.75;;;;;;;;;;10358016;28;20055;-62
2021/03/20 04:36:41;;;;;;;21.90;16.08;;;;;;;;;;10358452;28;20044;-63
2021/03/20 04:41:39;;;;;;;22.10;16.45;;;;;;;;;;10354246;28;20071;-62
2021/03/20 04:46:37;;;;;;;19.58;14.88;;;;;;;;;;10358257;28;20043;-62
2021/03/20 04:51:38;;;;;;;23.60;16.52;;;;;;;;;;10356624;28;20517;-62
2021/03/20 04:56:40;;;;;;;62.63;40.53;;;;;;;;;;10357817;28;20059;-64
2021/03/20 05:01:43;;;;;;;21.40;16.67;;;;;;;;;;10355991;28;20062;-61
2021/03/20 05:06:41;;;;;;;28.50;17.48;;;;;;;;;;10357677;28;20488;-61
2021/03/20 05:11:41;;;;;;;61.63;22.13;;;;;;;;;;10356095;28;20052;-63
2021/03/20 05:16:41;;;;;;;33.88;23.85;;;;;;;;;;10357549;28;20601;-63
2021/03/20 05:21:39;;;;;;;22.75;17.05;;;;;;;;;;10357274;28;20075;-63
2021/03/20 05:26:38;;;;;;;20.25;15.88;;;;;;;;;;10356064;28;20448;-63
2021/03/20 05:31:35;;;;;;;30.80;25.55;;;;;;;;;;10355785;28;20068;-62
2021/03/20 05:36:33;;;;;;;37.25;27.70;;;;;;;;;;10357031;28;20044;-62
2021/03/20 05:41:35;;;;;;;25.55;19.85;;;;;;;;;;10361708;28;20075;-62
2021/03/20 05:46:36;;;;;;;26.17;20.55;;;;;;;;;;10362894;28;20055;-63
2021/03/20 05:51:45;;;;;;;26.38;20.38;;;;;;;;;;10363139;28;20129;-62
2021/03/20 05:56:46;;;;;;;28.38;23.70;;;;;;;;;;10363063;28;20072;-63
2021/03/20 06:01:49;;;;;;;27.13;19.88;;;;;;;;;;10359077;28;20064;-63
2021/03/20 06:06:58;;;;;;;24.05;19.73;;;;;;;;;;10354822;28;20068;-63
2021/03/20 06:12:02;;;;;;;22.77;18.10;;;;;;;;;;10342333;28;20079;-63
2021/03/20 06:17:05;;;;;;;40.90;28.75;;;;;;;;;;10356453;28;20044;-62
2021/03/20 06:22:21;;;;;;;26.88;21.48;;;;;;;;;;10357617;28;20505;-62
2021/03/20 06:27:21;;;;;;;46.00;33.50;;;;;;;;;;10357899;28;20055;-63
2021/03/20 06:32:21;;;;;;;30.05;23.98;;;;;;;;;;10362578;28;20072;-62
2021/03/20 06:37:23;;;;;;;39.38;26.95;;;;;;;;;;10360807;28;20094;-63
2021/03/20 06:42:23;;;;;;;48.70;32.55;;;;;;;;;;10362193;28;20528;-63
2021/03/20 06:47:23;;;;;;;36.65;27.02;;;;;;;;;;10351772;28;21841;-63
2021/03/20 06:52:21;;;;;;;36.92;26.25;;;;;;;;;;10345983;28;20117;-65
2021/03/20 06:57:18;;;;;;;46.08;32.65;;;;;;;;;;10351285;28;20067;-64
2021/03/20 07:02:21;;;;;;;41.85;27.58;;;;;;;;;;10356573;28;20063;-64
2021/03/20 07:07:43;;;;;;;32.92;23.83;;;;;;;;;;10356191;28;20071;-62
2021/03/20 07:13:02;;;;;;;48.85;33.38;;;;;;;;;;10358878;28;20446;-61
2021/03/20 07:18:14;;;;;;;24.75;21.08;;;;;;;;;;10360364;28;20070;-64
2021/03/20 07:23:13;;;;;;;28.52;21.52;;;;;;;;;;10358993;28;20063;-62
2021/03/20 07:28:13;;;;;;;47.83;31.50;;;;;;;;;;10360390;28;20094;-63
2021/03/20 07:33:25;;;;;;;55.55;33.75;;;;;;;;;;10358521;28;20040;-64
2021/03/20 07:38:24;;;;;;;25.55;20.42;;;;;;;;;;10357201;28;20079;-64
2021/03/20 07:43:23;;;;;;;43.55;27.77;;;;;;;;;;10357141;28;20048;-63
2021/03/20 07:48:24;;;;;;;29.63;22.75;;;;;;;;;;10358916;28;20095;-63
2021/03/20 07:53:22;;;;;;;28.92;23.58;;;;;;;;;;10358860;28;20068;-63
2021/03/20 07:58:21;;;;;;;31.48;22.13;;;;;;;;;;10358661;28;20071;-63
2021/03/20 08:03:21;;;;;;;23.88;18.48;;;;;;;;;;10357974;28;20429;-63
2021/03/20 08:08:21;;;;;;;32.40;22.33;;;;;;;;;;10358390;28;20055;-63
2021/03/20 08:13:34;;;;;;;26.67;20.33;;;;;;;;;;10358865;28;20095;-63
2021/03/20 08:18:34;;;;;;;47.28;34.05;;;;;;;;;;10354679;28;21003;-63
2021/03/20 08:23:42;;;;;;;28.63;21.25;;;;;;;;;;10356150;28;20505;-64
2021/03/20 08:28:46;;;;;;;24.98;21.15;;;;;;;;;;10356071;28;20079;-63
2021/03/20 08:33:51;;;;;;;28.95;20.77;;;;;;;;;;10357943;28;20083;-63
2021/03/20 08:38:48;;;;;;;;;;;;;;;;;;10355578;28;20075;-63
2021/03/20 08:43:52;;;;;;;21.90;18.42;;;;;;;;;;10357288;28;19920;-63
2021/03/20 08:48:57;;;;;;;26.08;20.75;;;;;;;;;;10355078;28;20039;-63
2021/03/20 08:53:57;;;;;;;23.38;18.35;;;;;;;;;;10354821;28;20040;-63
2021/03/20 08:58:57;;;;;;;26.15;21.35;;;;;;;;;;10354976;28;20059;-63
2021/03/20 09:03:57;;;;;;;31.35;24.95;;;;;;;;;;10354632;28;20056;-63
2021/03/20 09:08:56;;;;;;;23.20;19.33;;;;;;;;;;10354641;28;20036;-63
2021/03/20 09:13:56;;;;;;;22.33;18.00;;;;;;;;;;10356395;28;20075;-63
2021/03/20 09:18:54;;;;;;;22.05;17.88;;;;;;;;;;10364981;28;20333;-63
2021/03/20 09:23:52;;;;;;;29.45;19.83;;;;;;;;;;10365155;28;20483;-63
2021/03/20 09:29:06;;;;;;;23.65;17.95;;;;;;;;;;10365178;28;20056;-63
2021/03/20 09:34:25;;;;;;;22.08;16.48;;;;;;;;;;10362910;28;20068;-63
2021/03/20 09:39:37;;;;;;;31.08;23.25;;;;;;;;;;10362567;28;20072;-63
2021/03/20 09:44:35;;;;;;;21.45;17.52;;;;;;;;;;10364844;28;20146;-63
2021/03/20 09:49:39;;;;;;;52.17;36.50;;;;;;;;;;10364340;28;20047;-63
2021/03/20 09:54:43;;;;;;;22.27;17.40;;;;;;;;;;10364083;28;20047;-63
2021/03/20 09:59:46;;;;;;;25.92;16.52;;;;;;;;;;10361319;28;20075;-63
2021/03/20 10:04:57;;;;;;;26.90;20.08;;;;;;;;;;10361768;28;20080;-63
2021/03/20 10:09:57;;;;;;;41.40;23.63;;;;;;;;;;10363451;28;20040;-63
2021/03/20 10:15:04;;;;;;;94.15;64.43;;;;;;;;;;10363330;28;20071;-62
2021/03/20 10:20:12;;;;;;;42.40;28.70;;;;;;;;;;10363395;28;20497;-62
2021/03/20 10:25:13;;;;;;;79.57;59.08;;;;;;;;;;10361204;28;20055;-62
2021/03/20 10:30:12;;;;;;;67.97;49.45;;;;;;;;;;10361951;28;20055;-62
2021/03/20 10:35:09;;;;;;;74.70;55.40;;;;;;;;;;10363153;28;20056;-62
2021/03/20 10:40:09;;;;;;;45.97;33.03;;;;;;;;;;10362725;28;20067;-63
2021/03/20 10:45:14;;;;;;;74.65;53.08;;;;;;;;;;10360222;28;20044;-63
2021/03/20 10:50:22;;;;;;;40.25;29.65;;;;;;;;;;10360237;28;20055;-62
2021/03/20 10:55:22;;;;;;;70.85;51.03;;;;;;;;;;10361676;28;20056;-64
2021/03/20 11:00:22;;;;;;;22.90;17.73;;;;;;;;;;10361647;28;20531;-64
2021/03/20 11:05:30;;;;;;;28.80;19.73;;;;;;;;;;10361404;28;20064;-62
2021/03/20 11:10:33;;;;;;;23.00;19.63;;;;;;;;;;10358470;28;20044;-62
2021/03/20 11:15:33;;;;;;;23.65;20.00;;;;;;;;;;10358744;28;20044;-62
2021/03/20 11:20:32;;;;;;;37.63;27.55;;;;;;;;;;10358548;28;20075;-63
2021/03/20 11:25:32;;;;;;;20.80;16.95;;;;;;;;;;10358031;28;20425;-63
2021/03/20 11:30:32;;;;;;;26.67;19.30;;;;;;;;;;10360104;28;20063;-64
2021/03/20 11:35:34;;;;;;;21.38;15.23;;;;;;;;;;10360414;28;20428;-64
2021/03/20 11:40:33;;;;;;;42.60;31.13;;;;;;;;;;10357493;28;20075;-64
2021/03/20 11:45:31;;;;;;;20.90;16.98;;;;;;;;;;10357310;28;20067;-63
2021/03/20 11:50:30;;;;;;;39.05;29.63;;;;;;;;;;10359615;28;20075;-63
2021/03/20 11:55:35;;;;;;;33.47;25.30;;;;;;;;;;10359485;28;20044;-64
2021/03/20 12:00:40;;;;;;;19.90;15.68;;;;;;;;;;10359523;28;20079;-64
2021/03/20 12:05:38;;;;;;;19.08;15.82;;;;;;;;;;10357088;28;20457;-64
2021/03/20 12:10:36;;;;;;;16.63;12.98;;;;;;;;;;10359223;28;20043;-64
2021/03/20 12:15:35;;;;;;;26.20;19.10;;;;;;;;;;10358670;28;20072;-64
2021/03/20 12:20:37;;;;;;;21.83;16.77;;;;;;;;;;10358623;28;20509;-64
2021/03/20 12:25:35;;;;;;;18.40;14.63;;;;;;;;;;10358850;28;20082;-64
2021/03/20 12:30:34;;;;;;;60.95;38.58;;;;;;;;;;10357556;28;20076;-64
2021/03/20 12:35:34;;;;;;;43.65;29.85;;;;;;;;;;10357662;28;20090;-64
2021/03/20 12:40:32;;;;;;;32.58;24.85;;;;;;;;;;10357961;28;20468;-64
2021/03/20 12:45:31;;;;;;;24.25;17.60;;;;;;;;;;10358172;28;20123;-64
2021/03/20 12:50:45;;;;;;;17.05;14.35;;;;;;;;;;10355668;28;20071;-64
2021/03/20 12:55:42;;;;;;;25.98;20.63;;;;;;;;;;10355155;28;20064;-64
2021/03/20 13:00:39;;;;;;;20.20;16.92;;;;;;;;;;10354754;28;20076;-64
2021/03/20 13:05:38;;;;;;;21.00;16.13;;;;;;;;;;10357686;28;20070;-62
2021/03/20 13:10:36;;;;;;;23.45;17.95;;;;;;;;;;10356888;28;20040;-63
2021/03/20 13:15:34;;;;;;;22.08;17.70;;;;;;;;;;10356843;28;20082;-63
2021/03/20 13:20:32;;;;;;;29.65;23.98;;;;;;;;;;10357064;28;20079;-63
2021/03/20 13:25:37;;;;;;;26.23;18.48;;;;;;;;;;10357040;28;20036;-63
2021/03/20 13:30:38;;;;;;;32.10;25.17;;;;;;;;;;10356717;28;20090;-63
2021/03/20 13:35:36;;;;;;;23.27;18.27;;;;;;;;;;10356646;28;20043;-63
2021/03/20 13:40:35;;;;;;;15.15;13.43;;;;;;;;;;10356431;28;20076;-64
2021/03/20 13:45:34;;;;;;;17.88;15.20;;;;;;;;;;10356354;28;20048;-64
2021/03/20 13:50:34;;;;;;;22.92;18.05;;;;;;;;;;10353766;28;20071;-65
2021/03/20 13:55:33;;;;;;;21.60;17.52;;;;;;;;;;10354318;28;20052;-63
2021/03/20 14:00:30;;;;;;;39.60;28.20;;;;;;;;;;10356701;28;20092;-63
2021/03/20 14:05:29;;;;;;;57.63;38.17;;;;;;;;;;10361582;28;20070;-63
2021/03/20 14:10:27;;;;;;;28.95;21.73;;;;;;;;;;10363687;28;20402;-64
2021/03/20 14:15:24;;;;;;;42.03;29.33;;;;;;;;;;10363581;28;20044;-64
2021/03/20 14:20:23;;;;;;;21.85;18.48;;;;;;;;;;10363307;28;20083;-64
2021/03/20 14:25:23;;;;;;;27.00;20.27;;;;;;;;;;10363365;28;20521;-64
2021/03/20 14:30:22;;;;;;;31.75;23.55;;;;;;;;;;10362440;28;20433;-64
2021/03/20 14:35:39;;;;;;;37.80;28.95;;;;;;;;;;10361145;28;20096;-64
2021/03/20 14:40:39;;;;;;;70.97;51.85;;;;;;;;;;10361685;28;20469;-64
2021/03/20 14:45:36;;;;;;;34.00;26.42;;;;;;;;;;10360323;28;20130;-64
2021/03/20 14:50:35;;;;;;;31.63;22.58;;;;;;;;;;10361258;28;20421;-63
2021/03/20 14:55:32;;;;;;;65.25;35.50;;;;;;;;;;10361008;28;20080;-64
2021/03/20 15:00:32;;;;;;;44.58;28.27;;;;;;;;;;10362120;28;20075;-64
2021/03/20 15:05:29;;;;;;;60.10;47.50;;;;;;;;;;10361791;28;20055;-64
2021/03/20 15:10:28;;;;;;;40.70;25.85;;;;;;;;;;10361161;28;20072;-64
2021/03/20 15:15:26;;;;;;;51.95;33.90;;;;;;;;;;10360779;28;20036;-64
2021/03/20 15:20:26;;;;;;;47.75;30.10;;;;;;;;;;10361231;28;20083;-65
2021/03/20 15:25:23;;;;;;;37.47;22.98;;;;;;;;;;10359121;28;20056;-64
2021/03/20 15:30:24;;;;;;;30.65;20.95;;;;;;;;;;10357370;28;20480;-64
2021/03/20 15:35:21;;;;;;;35.28;21.80;;;;;;;;;;10357718;28;20074;-64
2021/03/20 15:40:21;;;;;;;37.08;26.38;;;;;;;;;;10360168;28;20088;-64
2021/03/20 15:45:19;;;;;;;38.65;23.55;;;;;;;;;;10359162;28;20078;-64
2021/03/20 15:50:19;;;;;;;30.27;22.73;;;;;;;;;;10359672;28;20040;-65
2021/03/20 15:55:18;;;;;;;37.83;26.33;;;;;;;;;;10359369;28;20075;-64
2021/03/20 16:00:18;;;;;;;18.40;14.80;;;;;;;;;;10358487;28;20075;-64
2021/03/20 16:05:16;;;;;;;30.98;22.45;;;;;;;;;;10359214;28;20040;-64
2021/03/20 16:10:17;;;;;;;32.05;25.58;;;;;;;;;;10359013;28;20048;-65
2021/03/20 16:15:15;;;;;;;29.42;24.23;;;;;;;;;;10358555;28;20466;-63
2021/03/20 16:20:28;;;;;;;22.52;19.65;;;;;;;;;;10358805;28;20491;-64
2021/03/20 16:25:29;;;;;;;51.40;36.47;;;;;;;;;;10355584;28;20040;-65
2021/03/20 16:30:30;;;;;;;39.80;29.90;;;;;;;;;;10355267;28;20082;-64
2021/03/20 16:35:28;;;;;;;36.45;27.55;;;;;;;;;;10347999;28;20080;-64
2021/03/20 16:40:27;;;;;;;26.02;20.58;;;;;;;;;;10353409;28;20071;-62
2021/03/20 16:45:24;;;;;;;31.15;22.50;;;;;;;;;;10346400;28;20083;-63
2021/03/20 16:50:24;;;;;;;50.15;32.58;;;;;;;;;;10353838;28;20465;-64
2021/03/20 16:55:23;;;;;;;18.45;15.35;;;;;;;;;;10355774;28;20070;-64
2021/03/20 17:00:22;;;;;;;22.15;17.67;;;;;;;;;;10356720;28;20078;-63
2021/03/20 17:05:19;;;;;;;22.65;19.02;;;;;;;;;;10357191;28;20071;-64
2021/03/20 17:10:19;;;;;;;23.55;19.67;;;;;;;;;;10354722;28;20072;-62
2021/03/20 17:15:17;;;;;;;37.08;25.63;;;;;;;;;;10346925;28;20536;-62
2021/03/20 17:20:17;;;;;;;18.77;15.90;;;;;;;;;;10350434;28;20072;-63
2021/03/20 17:25:14;;;;;;;22.95;19.02;;;;;;;;;;10350748;28;20079;-63
2021/03/20 17:30:18;;;;;;;26.08;19.02;;;;;;;;;;10354005;28;20059;-63
2021/03/20 17:35:16;;;;;;;20.23;15.80;;;;;;;;;;10358755;28;20500;-64
2021/03/20 17:40:15;;;;;;;27.55;21.52;;;;;;;;;;10363365;28;20079;-64
2021/03/20 17:45:15;;;;;;;17.20;14.02;;;;;;;;;;10364638;28;20048;-64
2021/03/20 17:50:19;;;;;;;23.33;17.58;;;;;;;;;;10364356;28;20075;-63
2021/03/20 17:55:17;;;;;;;25.88;20.35;;;;;;;;;;10361623;28;20074;-63
2021/03/20 18:00:16;;;;;;;45.28;27.05;;;;;;;;;;10362355;28;20089;-63
2021/03/20 18:05:15;;;;;;;22.15;17.15;;;;;;;;;;10363452;28;20084;-63
2021/03/20 18:10:16;;;;;;;23.08;18.52;;;;;;;;;;10363608;28;20461;-64
2021/03/20 18:15:14;;;;;;;26.20;20.50;;;;;;;;;;10363546;28;20529;-64
2021/03/20 18:20:16;;;;;;;23.95;19.17;;;;;;;;;;10363031;28;20079;-63
2021/03/20 18:25:14;;;;;;;21.95;18.92;;;;;;;;;;10363110;28;20048;-63
2021/03/20 18:30:13;;;;;;;32.75;23.98;;;;;;;;;;10362461;28;20091;-64
2021/03/20 18:35:10;;;;;;;30.33;22.65;;;;;;;;;;10362873;28;20044;-64
2021/03/20 18:40:11;;;;;;;27.10;19.83;;;;;;;;;;10362598;28;20071;-64
2021/03/20 18:45:09;;;;;;;24.70;19.40;;;;;;;;;;10360322;28;20433;-64
2021/03/20 18:50:08;;;;;;;24.20;17.33;;;;;;;;;;10359797;28;20086;-64
2021/03/20 18:55:22;;;;;;;15.83;13.93;;;;;;;;;;10361814;28;20110;-64
2021/03/20 19:00:23;;;;;;;27.15;21.77;;;;;;;;;;10361598;28;20068;-64
2021/03/20 19:05:20;;;;;;;29.05;22.17;;;;;;;;;;10361759;28;20060;-64
2021/03/20 19:10:19;;;;;;;18.20;16.25;;;;;;;;;;10361126;28;20072;-65
2021/03/20 19:15:18;;;;;;;27.35;21.38;;;;;;;;;;10361236;28;20071;-63
2021/03/20 19:20:16;;;;;;;19.55;16.80;;;;;;;;;;10361025;28;20079;-63
2021/03/20 19:25:14;;;;;;;18.35;15.40;;;;;;;;;;10360495;28;20047;-64
2021/03/20 19:30:17;;;;;;;17.10;14.32;;;;;;;;;;10357424;28;20072;-64
2021/03/20 19:35:15;;;;;;;16.77;15.05;;;;;;;;;;10358071;28;20076;-64
2021/03/20 19:40:14;;;;;;;15.82;13.05;;;;;;;;;;10357787;28;20082;-64
2021/03/20 19:45:12;;;;;;;18.55;15.35;;;;;;;;;;10358499;28;20548;-64
2021/03/20 19:50:13;;;;;;;21.95;15.85;;;;;;;;;;10360021;28;20075;-64
2021/03/20 19:55:12;;;;;;;50.45;29.88;;;;;;;;;;10359600;28;20405;-64
2021/03/20 20:00:10;;;;;;;19.80;15.90;;;;;;;;;;10358742;28;20080;-64
2021/03/20 20:05:08;;;;;;;14.18;12.68;;;;;;;;;;10359151;28;20043;-62
2021/03/20 20:10:06;;;;;;;19.08;14.60;;;;;;;;;;10358756;28;20067;-62
2021/03/20 20:15:05;;;;;;;20.02;16.98;;;;;;;;;;10358561;28;20040;-63
2021/03/20 20:20:04;;;;;;;24.27;21.15;;;;;;;;;;10358596;28;20090;-63
2021/03/20 20:25:01;;;;;;;18.05;14.55;;;;;;;;;;10358225;28;20055;-64
2021/03/20 20:30:00;;;;;;;21.02;17.27;;;;;;;;;;10355531;28;20075;-63
2021/03/20 20:34:58;;;;;;;19.83;16.63;;;;;;;;;;10355400;28;20048;-63
2021/03/20 20:39:55;;;;;;;17.73;14.73;;;;;;;;;;10357502;28;20075;-63
2021/03/20 20:44:52;;;;;;;16.95;12.98;;;;;;;;;;10357895;28;20079;-63
2021/03/20 20:49:50;;;;;;;14.60;13.02;;;;;;;;;;10357921;28;20528;-64
2021/03/20 20:54:48;;;;;;;13.00;11.30;;;;;;;;;;10357671;28;20071;-64
2021/03/20 20:59:45;;;;;;;19.02;13.02;;;;;;;;;;10357298;28;20071;-63
2021/03/20 21:04:42;;;;;;;17.55;14.57;;;;;;;;;;10354488;28;20071;-62
2021/03/20 21:09:40;;;;;;;17.20;13.15;;;;;;;;;;10355731;28;20149;-64
2021/03/20 21:14:38;;;;;;;23.75;17.88;;;;;;;;;;10356222;28;20060;-63
2021/03/20 21:19:35;;;;;;;22.90;16.90;;;;;;;;;;10356786;28;20067;-63
2021/03/20 21:24:32;;;;;;;19.73;16.17;;;;;;;;;;10356521;28;20077;-64
2021/03/20 21:29:29;;;;;;;17.98;14.10;;;;;;;;;;10356584;28;20075;-64
2021/03/20 21:34:28;;;;;;;18.27;14.13;;;;;;;;;;10354479;28;20044;-64
2021/03/20 21:39:25;;;;;;;19.27;14.70;;;;;;;;;;10357052;28;20052;-64
2021/03/20 21:44:23;;;;;;;18.58;14.32;;;;;;;;;;10356211;28;20080;-63
2021/03/20 21:49:20;;;;;;;17.85;14.43;;;;;;;;;;10356681;28;20460;-63
2021/03/20 21:54:18;;;;;;;20.92;16.20;;;;;;;;;;10356505;28;20059;-64
2021/03/20 21:59:15;;;;;;;21.40;16.73;;;;;;;;;;10356270;28;20481;-64
2021/03/20 22:04:13;;;;;;;19.02;14.00;;;;;;;;;;10355879;28;20075;-64
2021/03/20 22:09:10;;;;;;;17.48;13.38;;;;;;;;;;10353226;28;20042;-63
2021/03/20 22:14:08;;;;;;;12.68;11.30;;;;;;;;;;10353264;28;20040;-63
2021/03/20 22:19:05;;;;;;;12.85;11.48;;;;;;;;;;10354900;28;20067;-65
2021/03/20 22:24:03;;;;;;;13.65;11.65;;;;;;;;;;10361557;28;20076;-64
2021/03/20 22:29:00;;;;;;;11.98;10.77;;;;;;;;;;10362422;28;20052;-63
2021/03/20 22:33:58;;;;;;;12.68;11.10;;;;;;;;;;10362603;28;20047;-63
2021/03/20 22:38:56;;;;;;;11.23;9.93;;;;;;;;;;10360279;28;20065;-63
2021/03/20 22:43:53;;;;;;;14.07;11.98;;;;;;;;;;10359297;28;20076;-64
2021/03/20 22:48:50;;;;;;;11.30;10.10;;;;;;;;;;10361406;28;20063;-64
2021/03/20 22:53:48;;;;;;;12.23;10.45;;;;;;;;;;10361489;28;20502;-63
2021/03/20 22:58:46;;;;;;;11.73;10.43;;;;;;;;;;10361607;28;20488;-64
2021/03/20 23:03:47;;;;;;;12.57;11.27;;;;;;;;;;10361002;28;20082;-63
2021/03/20 23:08:45;;;;;;;12.75;11.40;;;;;;;;;;10361494;28;20296;-63
2021/03/20 23:13:44;;;;;;;22.50;16.48;;;;;;;;;;10361743;28;20056;-63
2021/03/20 23:18:41;;;;;;;21.88;14.77;;;;;;;;;;10358261;28;20064;-64
2021/03/20 23:23:38;;;;;;;14.55;11.93;;;;;;;;;;10359860;28;20068;-63
2021/03/20 23:28:53;;;;;;;13.63;11.88;;;;;;;;;;10352515;28;20102;-64
2021/03/20 23:33:50;;;;;;;15.07;11.68;;;;;;;;;;10350664;28;20082;-64
2021/03/20 23:38:47;;;;;;;12.05;10.85;;;;;;;;;;10352128;28;20064;-65
2021/03/20 23:43:45;;;;;;;10.90;9.82;;;;;;;;;;10357083;28;20517;-64
2021/03/20 23:48:44;;;;;;;10.13;9.13;;;;;;;;;;10335883;28;20567;-63
2021/03/20 23:53:41;;;;;;;10.27;9.20;;;;;;;;;;10344448;28;20075;-62
2021/03/20 23:58:38;;;;;;;10.35;9.35;;;;;;;;;;10358476;28;20036;-61
